KGED/GED METAR and TAF weather

Enter ICAO airport designator
Station Type Date Time Source
KGED METAR 2019/02/20 22:54 UTC NOAA

KGED 202254Z AUTO 12007KT 3SM -RA BR OVC005 05/03 A3026 RMK AO2 RAE29B45 SLP247 P0001 T00500033


Station Type Date Time Source
KGED Decoded METAR 2019/02/20 22:54 UTC NOAA

GEORGETOWN SUSSEX CO AIRPORT , DE, United States (KGED) 38-41N 075-22W 19M
Feb 20, 2019 - 05:54 PM EST / 2019.02.20 2254 UTC
Wind: from the ESE (120 degrees) at 8 MPH (7 KT):0
Visibility: 3 mile(s):0
Sky conditions: overcast
Weather: light rain; mist
Precipitation last hour: 0.01 inches
Temperature: 41.0 F (5.0 C)
Dew Point: 37.9 F (3.3 C)
Relative Humidity: 88%
Pressure (altimeter): 30.26 in. Hg (1024 hPa)
ob: KGED 202254Z AUTO 12007KT 3SM -RA BR OVC005 05/03 A3026 RMK AO2 RAE29B45 SLP247 P0001 T00500033
cycle: 23

Station Type Date Time Source
KGED TAF UTC NOAA

Error!


Example: see airport list